Time;durP1;ratioP1;P1;durP2;ratioP2;P2;SDS_P1;SDS_P2;PMS_P1;PMS_P2;Temp;Humidity;BMP_temperature;BMP_pressure;BME280_temperature;BME280_humidity;BME280_pressure;Samples;Min_cycle;Max_cycle;Signal;HPM_P1;HPM_P2
2023/04/19 00:02:08;;;;;;;24.08;17.33;;;;;;;8.89;95.99;102591.88;4992290;28;20025;-74
2023/04/19 00:04:34;;;;;;;21.17;16.60;;;;;;;8.97;96.38;102597.16;4992073;28;20045;-74
2023/04/19 00:06:59;;;;;;;19.70;16.02;;;;;;;9.01;95.49;102596.31;5005830;28;20026;-74
2023/04/19 00:09:24;;;;;;;21.67;16.52;;;;;;;9.06;95.05;102592.06;5010942;28;20354;-74
2023/04/19 00:11:51;;;;;;;20.20;15.90;;;;;;;9.12;94.33;102591.22;5010619;28;20037;-74
2023/04/19 00:14:16;;;;;;;21.48;16.05;;;;;;;9.13;94.37;102595.59;5011318;28;20465;-74
2023/04/19 00:16:42;;;;;;;20.38;15.88;;;;;;;9.14;94.80;102592.13;5011331;28;20104;-74
2023/04/19 00:19:07;;;;;;;20.65;15.95;;;;;;;9.19;94.18;102592.16;5010692;28;20025;-74
2023/04/19 00:21:32;;;;;;;24.02;16.98;;;;;;;9.17;93.99;102593.91;5002301;28;20490;-74
2023/04/19 00:23:58;;;;;;;20.95;16.60;;;;;;;9.20;94.04;102593.94;5007847;28;20041;-74
2023/04/19 00:26:23;;;;;;;22.90;16.92;;;;;;;9.21;93.20;102585.25;5010763;28;20097;-74
2023/04/19 00:28:48;;;;;;;23.45;17.05;;;;;;;9.25;93.22;102581.81;5010700;28;20522;-74
2023/04/19 00:31:13;;;;;;;20.67;16.15;;;;;;;9.22;93.33;102579.19;5004372;28;20038;-74
2023/04/19 00:33:39;;;;;;;22.10;16.33;;;;;;;9.21;93.50;102577.44;4999175;28;20026;-73
2023/04/19 00:36:04;;;;;;;24.30;16.85;;;;;;;9.27;93.86;102593.13;5001613;28;20067;-74
2023/04/19 00:38:29;;;;;;;22.30;17.27;;;;;;;9.28;93.46;102584.44;4991489;28;20035;-73
2023/04/19 00:40:55;;;;;;;22.27;16.20;;;;;;;9.18;93.75;102564.41;4996016;28;20026;-74
2023/04/19 00:43:20;;;;;;;23.48;16.85;;;;;;;9.26;93.97;102580.97;4997431;28;20033;-74
2023/04/19 00:45:48;;;;;;;24.10;17.23;;;;;;;9.28;93.26;102581.84;4998676;28;20034;-74
2023/04/19 00:48:14;;;;;;;21.00;16.20;;;;;;;9.30;93.61;102590.56;4996579;28;20022;-74
2023/04/19 00:50:41;;;;;;;22.67;16.52;;;;;;;9.27;93.19;102574.91;5010424;28;20428;-74
2023/04/19 00:53:06;;;;;;;25.52;16.80;;;;;;;9.30;93.26;102585.34;5000119;28;20022;-74
2023/04/19 00:55:32;;;;;;;22.85;17.05;;;;;;;9.30;93.55;102580.16;5001319;28;20347;-74
2023/04/19 00:57:58;;;;;;;20.00;17.02;;;;;;;9.29;92.70;102579.28;5003932;28;20034;-74
2023/04/19 01:00:24;;;;;;;23.25;17.52;;;;;;;9.30;93.40;102580.16;5010867;28;20022;-74
2023/04/19 01:02:49;;;;;;;23.45;17.23;;;;;;;9.35;93.29;102588.84;5009822;28;20026;-73
2023/04/19 01:05:15;;;;;;;23.25;16.92;;;;;;;9.37;93.78;102589.75;5002075;28;20025;-74
2023/04/19 01:07:43;;;;;;;24.38;16.83;;;;;;;9.37;93.56;102585.41;5009764;28;20507;-74
2023/04/19 01:10:09;;;;;;;22.10;16.65;;;;;;;9.36;93.57;102578.47;5010633;28;20056;-74
2023/04/19 01:12:34;;;;;;;21.58;16.67;;;;;;;9.35;93.72;102581.03;5001438;28;20455;-74
2023/04/19 01:15:00;;;;;;;24.08;17.40;;;;;;;9.38;93.86;102581.06;5005662;28;20058;-74
2023/04/19 01:17:26;;;;;;;19.95;16.40;;;;;;;9.37;93.74;102582.81;5010492;28;20385;-74
2023/04/19 01:19:59;;;;;;;24.15;17.65;;;;;;;9.39;94.24;102577.63;5009925;28;20030;-74
2023/04/19 01:22:24;;;;;;;26.23;16.90;;;;;;;9.35;94.28;102578.44;5010001;28;20057;-74
2023/04/19 01:24:50;;;;;;;22.98;16.50;;;;;;;9.40;93.93;102578.50;5009973;28;20046;-74
2023/04/19 01:27:16;;;;;;;23.83;16.73;;;;;;;9.40;94.53;102584.56;5010229;28;20029;-74
2023/04/19 01:29:41;;;;;;;21.95;16.77;;;;;;;9.37;94.50;102581.94;5008947;28;20455;-74
2023/04/19 01:32:07;;;;;;;26.10;16.65;;;;;;;9.40;94.68;102586.31;5009713;28;20022;-74
2023/04/19 01:34:32;;;;;;;21.23;16.30;;;;;;;9.31;94.07;102580.16;4999654;28;20058;-74
2023/04/19 01:36:57;;;;;;;22.42;16.60;;;;;;;9.37;94.38;102574.13;5009383;28;20461;-74
2023/04/19 01:39:24;;;;;;;21.65;16.65;;;;;;;9.39;95.43;102585.44;5010345;28;20026;-74
2023/04/19 01:41:50;;;;;;;23.10;16.75;;;;;;;9.34;94.45;102581.91;5007325;28;20109;-74
2023/04/19 01:44:15;;;;;;;21.63;16.20;;;;;;;9.35;94.96;102576.72;5009306;28;20057;-74
2023/04/19 01:46:41;;;;;;;21.30;15.98;;;;;;;9.42;94.87;102585.47;5005040;28;20034;-74
2023/04/19 01:49:07;;;;;;;21.38;16.83;;;;;;;9.41;95.47;102580.22;4989073;28;20054;-74
2023/04/19 01:51:32;;;;;;;21.38;16.27;;;;;;;9.40;95.52;102581.97;4987052;28;20045;-74
2023/04/19 01:53:58;;;;;;;21.90;16.48;;;;;;;9.39;95.73;102575.03;4995060;28;20106;-74
2023/04/19 01:56:23;;;;;;;21.55;16.13;;;;;;;9.40;96.50;102574.16;5009998;28;20018;-73
2023/04/19 01:58:48;;;;;;;22.42;16.55;;;;;;;9.40;96.46;102583.72;4992484;28;20033;-74
2023/04/19 02:01:13;;;;;;;23.00;16.85;;;;;;;9.40;96.62;102579.38;4997909;28;20466;-74
2023/04/19 02:03:39;;;;;;;21.77;16.17;;;;;;;9.42;96.74;102569.84;4999532;28;20155;-74
2023/04/19 02:06:04;;;;;;;22.08;16.33;;;;;;;9.36;96.89;102560.25;5009128;28;20461;-74
2023/04/19 02:08:30;;;;;;;24.30;16.35;;;;;;;9.35;97.37;102553.31;4999251;28;20417;-74
2023/04/19 02:10:55;;;;;;;23.48;16.63;;;;;;;9.42;97.28;102562.03;5008709;28;20038;-74
2023/04/19 02:13:21;;;;;;;26.13;17.02;;;;;;;9.40;98.00;102550.72;5005333;28;20132;-74
2023/04/19 02:15:46;;;;;;;25.75;17.60;;;;;;;9.39;98.61;102554.19;4998355;28;20039;-74
2023/04/19 02:18:12;;;;;;;22.70;16.42;;;;;;;9.40;98.34;102549.88;4998793;28;20038;-74
2023/04/19 02:20:37;;;;;;;26.73;17.42;;;;;;;9.38;98.90;102542.03;4988364;28;20032;-74
2023/04/19 02:23:03;;;;;;;23.63;16.98;;;;;;;9.42;98.86;102548.13;4994052;28;20026;-74
2023/04/19 02:25:28;;;;;;;21.58;16.90;;;;;;;9.43;98.98;102552.50;5000702;28;20030;-74
2023/04/19 02:27:53;;;;;;;24.08;17.67;;;;;;;9.42;99.25;102549.03;5009172;28;20026;-74
2023/04/19 02:30:19;;;;;;;24.60;17.02;;;;;;;9.45;99.39;102554.25;5000569;28;20042;-74
2023/04/19 02:32:47;;;;;;;22.80;17.10;;;;;;;9.44;100.00;102549.88;4993252;28;20489;-74
2023/04/19 02:35:12;;;;;;;23.67;17.00;;;;;;;9.42;100.00;102550.72;4995210;28;20034;-74
2023/04/19 02:37:38;;;;;;;23.33;16.90;;;;;;;9.45;100.00;102543.84;4996139;28;20036;-74
2023/04/19 02:40:04;;;;;;;23.23;17.42;;;;;;;9.46;99.99;102556.00;5000839;28;20474;-74
2023/04/19 02:42:29;;;;;;;24.77;16.38;;;;;;;9.44;99.71;102551.63;4995134;28;20071;-74
2023/04/19 02:44:55;;;;;;;24.15;17.30;;;;;;;9.46;100.00;102548.19;5000947;28;20022;-73
2023/04/19 02:47:20;;;;;;;24.10;17.42;;;;;;;9.47;100.00;102546.44;4992890;28;20042;-74
2023/04/19 02:49:46;;;;;;;26.52;18.17;;;;;;;9.48;100.00;102548.19;5003114;28;20026;-73
2023/04/19 02:52:11;;;;;;;24.73;16.95;;;;;;;9.49;100.00;102544.75;4993802;28;20031;-74
2023/04/19 02:54:36;;;;;;;22.42;17.38;;;;;;;9.51;100.00;102546.47;4987619;28;20039;-74
2023/04/19 02:57:01;;;;;;;23.10;17.00;;;;;;;9.50;100.00;102544.75;5000405;28;20563;-74
2023/04/19 02:59:27;;;;;;;23.50;16.20;;;;;;;9.53;99.67;102547.38;4991668;28;20366;-74
2023/04/19 03:01:52;;;;;;;27.63;18.00;;;;;;;9.55;100.00;102550.88;4992913;28;20026;-74
2023/04/19 03:04:17;;;;;;;23.05;16.25;;;;;;;9.55;100.00;102556.06;5000980;28;20030;-74
2023/04/19 03:06:43;;;;;;;24.58;16.40;;;;;;;9.55;100.00;102556.06;4990695;28;20102;-74
2023/04/19 03:09:09;;;;;;;22.20;16.13;;;;;;;9.47;100.00;102544.72;5000161;28;20026;-74
2023/04/19 03:11:34;;;;;;;23.33;17.17;;;;;;;9.47;100.00;102542.09;4992413;28;20127;-74
2023/04/19 03:13:59;;;;;;;23.10;16.40;;;;;;;9.48;100.00;102543.88;5002947;28;20074;-74
2023/04/19 03:16:25;;;;;;;21.23;16.58;;;;;;;9.46;100.00;102535.16;5006686;28;20507;-74
2023/04/19 03:18:50;;;;;;;22.60;17.17;;;;;;;9.50;100.00;102544.75;5005988;28;20086;-74
2023/04/19 03:21:16;;;;;;;22.33;15.75;;;;;;;9.44;100.00;102536.88;5002582;28;20072;-74
2023/04/19 03:23:41;;;;;;;22.50;16.45;;;;;;;9.47;100.00;102546.44;5011714;28;20055;-74
2023/04/19 03:26:06;;;;;;;21.35;15.50;;;;;;;9.44;100.00;102546.41;5003796;28;20041;-74
2023/04/19 03:28:31;;;;;;;20.85;15.90;;;;;;;9.45;100.00;102541.25;5002835;28;20129;-75
2023/04/19 03:30:57;;;;;;;20.80;15.23;;;;;;;9.43;100.00;102544.69;5011882;28;20457;-74
2023/04/19 03:33:22;;;;;;;21.98;15.90;;;;;;;9.46;100.00;102542.97;5012278;28;20022;-74
2023/04/19 03:35:47;;;;;;;22.95;16.08;;;;;;;9.49;100.00;102544.75;5010889;28;20483;-74
2023/04/19 03:38:12;;;;;;;21.00;15.23;;;;;;;9.42;100.00;102523.00;5005598;28;20030;-75
2023/04/19 03:40:38;;;;;;;22.27;16.08;;;;;;;9.47;100.00;102539.50;5011397;28;20022;-74
2023/04/19 03:43:03;;;;;;;23.33;16.00;;;;;;;9.47;100.00;102526.50;5011236;28;20030;-74
2023/04/19 03:45:29;;;;;;;21.95;15.55;;;;;;;9.40;100.00;102521.22;5003613;28;20045;-74
2023/04/19 03:47:54;;;;;;;20.15;14.95;;;;;;;9.44;100.00;102530.81;4984192;28;20346;-74
2023/04/19 03:50:20;;;;;;;22.20;15.60;;;;;;;9.38;100.00;102526.41;5010995;28;20099;-74
2023/04/19 03:52:45;;;;;;;24.70;15.93;;;;;;;9.36;100.00;102522.94;5011639;28;20053;-74
2023/04/19 03:55:11;;;;;;;25.85;17.33;;;;;;;9.38;100.00;102536.81;5011499;28;20077;-74
2023/04/19 03:57:36;;;;;;;20.88;15.52;;;;;;;9.33;100.00;102525.50;5010813;28;20025;-74
2023/04/19 04:00:07;;;;;;;19.48;14.77;;;;;;;9.40;100.00;102544.66;5000502;28;20036;-74
2023/04/19 04:02:32;;;;;;;19.33;15.20;;;;;;;9.39;100.00;102535.97;5002660;28;20045;-74
2023/04/19 04:04:57;;;;;;;21.52;15.45;;;;;;;9.37;100.00;102542.91;5010720;28;20774;-74
2023/04/19 04:07:23;;;;;;;19.35;14.43;;;;;;;9.34;100.00;102541.13;5011631;28;20117;-74
2023/04/19 04:09:49;;;;;;;21.85;14.82;;;;;;;9.36;100.00;102543.75;5010825;28;20026;-74
2023/04/19 04:12:14;;;;;;;20.52;14.80;;;;;;;9.30;100.00;102538.50;5010669;28;20037;-74
2023/04/19 04:14:41;;;;;;;24.92;15.10;;;;;;;9.30;100.00;102543.72;5007464;28;20026;-74
2023/04/19 04:17:06;;;;;;;19.55;14.23;;;;;;;9.25;100.00;102542.78;5011093;28;20109;-74
2023/04/19 04:19:31;;;;;;;17.52;13.85;;;;;;;9.25;100.00;102541.03;5000792;28;20110;-74
2023/04/19 04:21:57;;;;;;;17.75;13.68;;;;;;;9.18;100.00;102534.03;4996650;28;20160;-74
2023/04/19 04:24:22;;;;;;;17.58;13.45;;;;;;;9.14;100.00;102525.34;4993886;28;20519;-74
2023/04/19 04:26:48;;;;;;;20.60;13.63;;;;;;;9.14;100.00;102537.47;5002203;28;20434;-75
2023/04/19 04:29:14;;;;;;;18.30;14.48;;;;;;;9.08;100.00;102535.69;4993345;28;20584;-74
2023/04/19 04:31:39;;;;;;;18.85;13.75;;;;;;;9.10;100.00;102546.13;5002504;28;20116;-74
2023/04/19 04:34:05;;;;;;;20.73;14.00;;;;;;;9.04;100.00;102540.84;5004526;28;20022;-75
2023/04/19 04:36:30;;;;;;;22.35;13.90;;;;;;;9.07;100.00;102549.56;4997879;28;20026;-74
2023/04/19 04:38:56;;;;;;;19.15;13.23;;;;;;;8.96;100.00;102539.88;4998241;28;20154;-74
2023/04/19 04:41:21;;;;;;;17.63;12.55;;;;;;;8.98;100.00;102552.06;5007459;28;20014;-74
2023/04/19 04:43:50;;;;;;;22.10;12.77;;;;;;;8.98;100.00;102551.19;5010614;28;20029;-75
2023/04/19 04:46:15;;;;;;;18.02;12.75;;;;;;;8.91;100.00;102552.84;4997731;28;20408;-74
2023/04/19 04:48:40;;;;;;;18.60;13.18;;;;;;;8.90;100.00;102556.31;5002921;28;20029;-74
2023/04/19 04:51:06;;;;;;;18.58;13.68;;;;;;;8.81;100.00;102544.09;5009436;28;20038;-74
2023/04/19 04:53:31;;;;;;;21.15;13.13;;;;;;;8.86;100.00;102552.81;5001237;28;20038;-75
2023/04/19 04:55:56;;;;;;;22.10;12.48;;;;;;;8.93;100.00;102552.88;5006893;28;20026;-74
2023/04/19 04:58:22;;;;;;;19.55;12.95;;;;;;;8.90;100.00;102551.13;4996054;28;20023;-74
2023/04/19 05:00:47;;;;;;;17.65;12.95;;;;;;;8.90;100.00;102561.53;5003658;28;20397;-74
2023/04/19 05:03:13;;;;;;;18.85;12.20;;;;;;;8.91;100.00;102564.13;5010948;28;20373;-74
2023/04/19 05:05:38;;;;;;;17.48;11.70;;;;;;;8.88;100.00;102560.63;5010673;28;20033;-74
2023/04/19 05:08:04;;;;;;;15.05;11.23;;;;;;;8.78;100.00;102558.78;5009897;28;20033;-74
2023/04/19 05:10:29;;;;;;;16.88;11.32;;;;;;;8.72;100.00;102558.72;5001566;28;20413;-74
2023/04/19 05:12:55;;;;;;;16.15;11.07;;;;;;;8.62;100.00;102573.31;5006230;28;20044;-75
2023/04/19 05:15:20;;;;;;;18.40;10.77;;;;;;;8.57;100.00;102568.09;5009757;28;20030;-74
2023/04/19 05:17:46;;;;;;;15.93;10.20;;;;;;;8.53;100.00;102570.59;5010197;28;20408;-74
2023/04/19 05:20:11;;;;;;;13.95;9.57;;;;;;;8.49;100.00;102567.09;5010498;28;20030;-74
2023/04/19 05:22:37;;;;;;;15.25;10.50;;;;;;;8.42;100.00;102560.94;5009877;28;20033;-74
2023/04/19 05:25:02;;;;;;;15.57;10.50;;;;;;;8.39;100.00;102565.25;5010277;28;20049;-74
2023/04/19 05:27:28;;;;;;;14.25;9.98;;;;;;;8.38;100.00;102560.91;5007085;28;20029;-74
2023/04/19 05:29:53;;;;;;;14.82;9.85;;;;;;;8.40;100.00;102573.06;5009169;28;20030;-74
2023/04/19 05:32:20;;;;;;;13.15;9.35;;;;;;;8.40;100.00;102573.06;5004777;28;20434;-74
2023/04/19 05:34:46;;;;;;;13.70;9.80;;;;;;;8.39;100.00;102578.22;5002336;28;20030;-74
2023/04/19 05:37:11;;;;;;;16.75;10.18;;;;;;;8.39;100.00;102578.22;5009675;28;20032;-74
2023/04/19 05:39:36;;;;;;;13.73;9.18;;;;;;;8.38;100.00;102579.09;5009526;28;20022;-74
2023/04/19 05:42:02;;;;;;;17.75;9.98;;;;;;;8.40;100.00;102583.47;5009069;28;20504;-74
2023/04/19 05:44:27;;;;;;;13.18;9.85;;;;;;;8.39;100.00;102575.63;5006795;28;20026;-74
2023/04/19 05:46:52;;;;;;;13.57;9.82;;;;;;;8.40;100.00;102574.78;5009620;28;20038;-74
2023/04/19 05:49:17;;;;;;;13.77;9.90;;;;;;;8.38;100.00;102568.69;5009078;28;20026;-74
2023/04/19 05:51:43;;;;;;;14.25;9.77;;;;;;;8.38;100.00;102574.75;5009825;28;20040;-74
2023/04/19 05:54:11;;;;;;;15.20;9.30;;;;;;;8.30;100.00;102562.47;5009661;28;20398;-75
2023/04/19 05:56:37;;;;;;;11.73;9.23;;;;;;;8.42;99.36;102575.69;5009138;28;20445;-74
2023/04/19 05:59:02;;;;;;;13.43;9.32;;;;;;;8.36;99.59;102567.75;5000465;28;20110;-74
2023/04/19 06:01:27;;;;;;;13.95;9.43;;;;;;;8.34;99.25;102579.88;5006260;28;20369;-74
2023/04/19 06:03:53;;;;;;;13.02;9.27;;;;;;;8.20;99.98;102564.94;5009062;28;20018;-74
2023/04/19 06:06:22;;;;;;;12.75;9.52;;;;;;;8.26;100.00;102584.94;5009878;28;20067;-74
2023/04/19 06:08:47;;;;;;;15.60;9.55;;;;;;;8.23;99.61;102578.84;5009713;28;20026;-74
2023/04/19 06:11:13;;;;;;;12.40;9.63;;;;;;;8.25;99.75;102579.75;5008798;28;20057;-74
2023/04/19 06:13:38;;;;;;;16.63;10.05;;;;;;;8.34;100.00;102582.47;5009479;28;20097;-75
2023/04/19 06:16:04;;;;;;;16.67;11.18;;;;;;;8.56;99.33;102594.91;5009861;28;20457;-74
2023/04/19 06:18:30;;;;;;;14.70;9.90;;;;;;;8.74;97.76;102588.22;5002049;28;20465;-74
2023/04/19 06:20:55;;;;;;;17.15;10.55;;;;;;;8.90;97.28;102593.59;5008897;28;20032;-74
2023/04/19 06:23:20;;;;;;;13.43;10.07;;;;;;;9.04;95.12;102585.94;4987374;28;20393;-74
2023/04/19 06:25:48;;;;;;;13.00;9.40;;;;;;;9.16;91.55;102584.34;4989019;28;20031;-73
2023/04/19 06:28:14;;;;;;;14.10;9.38;;;;;;;9.14;93.08;102594.72;4988094;28;20186;-74
2023/04/19 06:30:39;;;;;;;17.45;9.13;;;;;;;9.11;92.16;102573.88;4995148;28;20485;-74
2023/04/19 06:33:05;;;;;;;14.52;9.35;;;;;;;9.11;90.29;102579.94;4987380;28;20386;-74
2023/04/19 06:35:31;;;;;;;12.90;9.18;;;;;;;9.06;91.53;102580.78;4989125;28;20175;-74
2023/04/19 06:37:56;;;;;;;12.48;8.73;;;;;;;9.02;91.36;102585.06;4986207;28;20105;-74
2023/04/19 06:40:21;;;;;;;16.85;9.80;;;;;;;9.00;89.13;102578.97;4990072;28;20034;-74
2023/04/19 06:42:47;;;;;;;13.23;8.48;;;;;;;9.01;89.89;102579.84;4986079;28;20133;-74
2023/04/19 06:45:13;;;;;;;13.32;8.18;;;;;;;9.07;88.42;102565.16;4986925;28;20037;-75
2023/04/19 06:47:39;;;;;;;12.15;8.27;;;;;;;9.32;85.84;102578.44;4985334;28;20040;-74
2023/04/19 06:50:05;;;;;;;12.70;7.97;;;;;;;9.52;85.66;102560.41;4990169;28;20408;-75
2023/04/19 06:52:30;;;;;;;12.55;8.15;;;;;;;9.59;82.88;102560.44;4992139;28;20042;-74
2023/04/19 06:54:56;;;;;;;11.15;7.97;;;;;;;9.67;80.42;102575.25;4990020;28;20043;-74
2023/04/19 06:57:21;;;;;;;14.38;8.18;;;;;;;9.68;79.99;102569.16;4991851;28;20355;-74
2023/04/19 06:59:46;;;;;;;14.57;8.60;;;;;;;9.65;79.82;102569.19;4986254;28;20097;-74
2023/04/19 07:02:11;;;;;;;9.68;7.55;;;;;;;9.64;78.19;102570.00;4991255;28;20042;-74
2023/04/19 07:04:37;;;;;;;10.35;8.77;;;;;;;9.58;77.67;102565.63;4991992;28;20018;-74
2023/04/19 07:07:03;;;;;;;11.63;8.35;;;;;;;9.48;77.72;102548.19;4991120;28;20470;-75
2023/04/19 07:09:28;;;;;;;15.27;8.02;;;;;;;9.65;77.63;102566.56;4991664;28;20087;-74
2023/04/19 07:11:54;;;;;;;11.82;7.55;;;;;;;9.71;77.24;102575.31;4992003;28;20386;-74
2023/04/19 07:14:19;;;;;;;11.20;7.95;;;;;;;9.77;74.61;102571.84;5000869;28;20101;-74
2023/04/19 07:16:45;;;;;;;10.25;7.60;;;;;;;9.79;73.11;102578.81;5020843;28;20044;-75
2023/04/19 07:19:11;;;;;;;11.80;7.72;;;;;;;9.80;73.29;102577.09;5012283;28;20079;-75
2023/04/19 07:21:38;;;;;;;13.27;7.93;;;;;;;9.86;73.99;102571.94;5011654;28;20026;-75
2023/04/19 07:24:05;;;;;;;11.88;7.70;;;;;;;9.82;74.03;102554.53;5012069;28;20018;-75
2023/04/19 07:26:30;;;;;;;11.90;7.30;;;;;;;9.95;71.21;102572.00;5000510;28;20033;-73
2023/04/19 07:28:55;;;;;;;11.65;7.60;;;;;;;9.96;71.73;102578.06;4998559;28;20022;-74
2023/04/19 07:31:21;;;;;;;13.43;7.35;;;;;;;9.96;70.18;102563.31;5002152;28;20473;-75
2023/04/19 07:33:46;;;;;;;10.55;7.05;;;;;;;10.04;70.92;102577.28;5011741;28;20026;-74
2023/04/19 07:36:11;;;;;;;11.40;7.90;;;;;;;10.09;71.10;102575.53;5000072;28;20034;-74
2023/04/19 07:38:37;;;;;;;9.57;7.47;;;;;;;10.11;67.61;102564.28;5011884;28;20343;-75
2023/04/19 07:41:04;;;;;;;9.35;7.15;;;;;;;10.13;68.15;102571.22;5011696;28;20018;-75
2023/04/19 07:43:29;;;;;;;9.35;7.30;;;;;;;10.14;67.04;102577.34;4998965;28;20040;-74
2023/04/19 07:45:54;;;;;;;10.60;7.78;;;;;;;10.15;67.65;102572.13;5009050;28;20018;-74
2023/04/19 07:48:20;;;;;;;10.82;7.45;;;;;;;10.22;66.47;102571.28;5012123;28;20022;-74
2023/04/19 07:50:45;;;;;;;9.50;7.07;;;;;;;10.21;66.15;102556.53;5010595;28;20462;-74
2023/04/19 07:53:11;;;;;;;10.73;7.32;;;;;;;10.28;65.89;102562.66;5007601;28;20026;-74
2023/04/19 07:55:36;;;;;;;9.93;7.13;;;;;;;10.22;66.13;102539.13;4986822;28;20076;-74
2023/04/19 07:58:01;;;;;;;12.20;7.65;;;;;;;10.36;65.10;102550.53;5009406;28;20060;-74
2023/04/19 08:00:28;;;;;;;12.90;7.32;;;;;;;10.41;65.77;102551.44;5002642;28;20125;-75
2023/04/19 08:02:55;;;;;;;12.85;7.50;;;;;;;10.54;65.06;102548.00;5004268;28;20037;-74
2023/04/19 08:05:21;;;;;;;12.90;7.95;;;;;;;10.62;64.58;102554.97;4995719;28;20031;-74
2023/04/19 08:07:46;;;;;;;14.25;7.40;;;;;;;10.72;62.72;102564.59;4998645;28;20068;-74
2023/04/19 08:10:12;;;;;;;15.07;7.43;;;;;;;10.74;62.54;102555.03;4996364;28;20079;-74
2023/04/19 08:12:37;;;;;;;9.50;7.13;;;;;;;10.75;62.48;102552.41;5011038;28;20018;-74
2023/04/19 08:15:06;;;;;;;10.73;7.30;;;;;;;10.74;61.35;102548.06;4995871;28;20027;-74
2023/04/19 08:17:31;;;;;;;10.10;7.53;;;;;;;10.74;62.39;102545.47;5010881;28;20042;-74
2023/04/19 08:19:56;;;;;;;9.32;7.35;;;;;;;10.86;60.97;102549.84;4995260;28;20515;-74
2023/04/19 08:22:22;;;;;;;10.00;6.97;;;;;;;10.88;62.06;102542.88;5011269;28;20029;-74
2023/04/19 08:24:51;;;;;;;11.55;7.47;;;;;;;11.04;63.28;102542.94;5010272;28;20018;-74
2023/04/19 08:27:17;;;;;;;10.50;7.40;;;;;;;11.17;60.89;102550.78;5010969;28;20487;-74
2023/04/19 08:29:42;;;;;;;11.65;7.65;;;;;;;11.25;61.53;102546.44;4992577;28;20034;-74
2023/04/19 08:32:07;;;;;;;10.57;6.78;;;;;;;11.36;62.11;102541.22;5006713;28;20030;-73
2023/04/19 08:34:36;;;;;;;13.57;7.28;;;;;;;11.51;61.54;102547.31;5011509;28;20025;-73
2023/04/19 08:37:02;;;;;;;8.55;6.63;;;;;;;11.60;59.93;102534.25;5010663;28;20472;-73
2023/04/19 08:39:27;;;;;;;10.52;7.60;;;;;;;11.72;59.10;102531.63;4991696;28;20065;-74
2023/04/19 08:41:55;;;;;;;10.70;7.45;;;;;;;11.70;59.62;102520.31;4989238;28;20114;-74
2023/04/19 08:44:21;;;;;;;10.40;6.97;;;;;;;11.96;57.46;102533.34;4995284;28;20083;-73
2023/04/19 08:46:49;;;;;;;11.52;7.22;;;;;;;11.95;54.85;102529.88;5009921;28;20026;-73
2023/04/19 08:49:15;;;;;;;10.20;7.43;;;;;;;11.99;55.92;102535.97;4991824;28;20473;-73
2023/04/19 08:51:43;;;;;;;13.30;6.45;;;;;;;12.02;54.87;102540.31;4997789;28;20045;-74
2023/04/19 08:54:09;;;;;;;10.20;6.47;;;;;;;11.94;53.92;102522.91;5010278;28;20125;-73
2023/04/19 08:56:35;;;;;;;11.48;7.28;;;;;;;12.07;53.01;102521.13;5011031;28;20029;-74
2023/04/19 08:59:00;;;;;;;14.77;7.63;;;;;;;12.07;51.83;102528.97;4999527;28;20146;-74
2023/04/19 09:01:26;;;;;;;11.23;7.60;;;;;;;12.15;52.21;102537.66;4992601;28;20053;-73
2023/04/19 09:03:51;;;;;;;15.25;8.25;;;;;;;12.29;53.13;102532.38;5001096;28;20043;-73
2023/04/19 09:06:16;;;;;;;11.10;7.93;;;;;;;12.44;52.25;102525.38;5006927;28;20057;-73
2023/04/19 09:08:41;;;;;;;10.90;7.45;;;;;;;12.51;51.43;102517.47;5000509;28;20034;-74
2023/04/19 09:11:07;;;;;;;12.07;7.63;;;;;;;12.54;50.54;102521.81;4992565;28;20120;-73
2023/04/19 09:13:35;;;;;;;12.60;7.45;;;;;;;12.51;49.01;102521.84;5008786;28;20465;-73
2023/04/19 09:16:01;;;;;;;12.18;6.43;;;;;;;12.48;49.71;102527.09;4993998;28;20030;-73
2023/04/19 09:18:26;;;;;;;7.93;5.70;;;;;;;12.55;48.35;102528.78;5003667;28;20033;-74
2023/04/19 09:20:58;;;;;;;9.68;5.90;;;;;;;12.53;47.88;102515.72;5001361;28;20022;-73
2023/04/19 09:23:25;;;;;;;9.45;6.20;;;;;;;12.71;49.73;102527.84;5010230;28;20033;-73
2023/04/19 09:25:56;;;;;;;8.88;5.63;;;;;;;12.91;49.23;102519.00;4994223;28;20083;-74
2023/04/19 09:28:22;;;;;;;10.07;5.68;;;;;;;13.01;48.51;102523.28;4988738;28;20470;-74
2023/04/19 09:30:47;;;;;;;7.53;4.78;;;;;;;13.16;49.08;102523.19;5009009;28;20026;-74
2023/04/19 09:33:13;;;;;;;7.45;4.90;;;;;;;13.18;45.88;102521.44;5002053;28;20482;-74
2023/04/19 09:35:48;;;;;;;8.07;4.70;;;;;;;13.15;47.93;102521.47;5006381;28;20014;-75
2023/04/19 09:38:15;;;;;;;8.40;5.50;;;;;;;13.23;45.97;102521.38;4990507;28;20031;-74
2023/04/19 09:40:41;;;;;;;6.32;4.60;;;;;;;13.28;45.69;102533.59;4993580;28;20034;-73
2023/04/19 09:43:07;;;;;;;9.40;4.57;;;;;;;13.26;45.05;102529.25;5032974;28;20036;-73
2023/04/19 09:45:43;;;;;;;7.80;5.30;;;;;;;13.19;45.44;102503.97;5002137;28;20489;-74
2023/04/19 09:48:09;;;;;;;11.98;5.50;;;;;;;13.40;45.35;102522.13;4976147;28;20474;-73
2023/04/19 09:50:49;;;;;;;9.23;4.57;;;;;;;13.42;45.41;102523.00;5049904;28;20873;-73
2023/04/19 09:53:15;;;;;;;7.43;4.43;;;;;;;13.52;46.06;102519.44;4985132;28;20042;-73
2023/04/19 09:55:41;;;;;;;8.70;4.35;;;;;;;13.59;44.04;102513.25;4992234;28;20088;-73
2023/04/19 09:58:07;;;;;;;7.03;4.65;;;;;;;13.67;44.57;102518.44;4977188;28;20316;-73
2023/04/19 10:00:34;;;;;;;7.88;4.22;;;;;;;13.74;44.20;102507.00;4996247;28;20064;-73
2023/04/19 10:02:59;;;;;;;9.45;4.72;;;;;;;13.89;43.69;102505.09;5008554;28;20029;-73
2023/04/19 10:05:25;;;;;;;5.97;4.10;;;;;;;14.01;43.48;102510.19;5009951;28;20025;-73
2023/04/19 10:07:51;;;;;;;8.23;5.00;;;;;;;14.06;43.28;102505.78;4992278;28;20023;-73
2023/04/19 10:10:18;;;;;;;5.47;4.28;;;;;;;14.09;42.89;102512.72;4989436;28;20042;-73
2023/04/19 10:12:48;;;;;;;9.65;4.18;;;;;;;14.08;42.44;102516.25;4989071;28;20029;-73
2023/04/19 10:15:14;;;;;;;10.10;4.18;;;;;;;13.84;39.01;102523.50;5006812;28;20021;-73
2023/04/19 10:17:40;;;;;;;5.38;3.50;;;;;;;13.78;37.98;102515.69;4995656;28;20377;-73
2023/04/19 10:20:10;;;;;;;10.02;3.67;;;;;;;13.73;38.76;102515.75;4991998;28;20211;-73
2023/04/19 10:22:37;;;;;;;10.75;4.03;;;;;;;13.82;39.33;102509.53;4993840;28;20553;-73
2023/04/19 10:25:14;;;;;;;5.53;3.50;;;;;;;13.99;39.88;102509.34;5004393;28;20029;-73
2023/04/19 10:27:44;;;;;;;7.28;4.05;;;;;;;14.14;39.74;102514.41;4992622;28;20026;-73
2023/04/19 10:30:50;;;;;;;9.10;4.15;;;;;;;14.26;41.38;102506.41;4996076;28;20037;-73
2023/04/19 10:33:28;;;;;;;6.25;3.92;;;;;;;14.32;41.02;102478.34;4996193;28;20037;-73
2023/04/19 10:35:58;;;;;;;5.57;3.70;;;;;;;14.48;40.26;102501.72;5003237;28;20022;-73
2023/04/19 10:38:42;;;;;;;7.57;3.92;;;;;;;14.57;40.62;102506.03;5012546;28;20074;-73
2023/04/19 10:41:10;;;;;;;7.18;3.20;;;;;;;14.58;38.97;102499.88;5008025;28;20477;-73
2023/04/19 10:43:37;;;;;;;4.32;2.92;;;;;;;14.63;37.75;102502.47;4993339;28;20519;-74
2023/04/19 10:46:21;;;;;;;8.00;3.58;;;;;;;14.60;36.67;102495.50;4999430;28;20052;-73
2023/04/19 10:48:53;;;;;;;;;;;;;;;14.48;38.62;102500.88;5007332;28;20037;-73
2023/04/19 10:51:37;;;;;;;6.68;2.97;;;;;;;14.42;37.82;102491.34;4984899;28;19940;-73
2023/04/19 10:54:07;;;;;;;9.43;3.05;;;;;;;14.49;37.75;102487.75;4998314;28;20047;-73
2023/04/19 10:56:32;;;;;;;6.45;2.70;;;;;;;14.50;36.45;102501.72;4997883;28;20031;-73
2023/04/19 10:59:07;;;;;;;3.33;2.33;;;;;;;14.38;36.07;102481.75;4999229;28;20035;-73
2023/04/19 11:01:38;;;;;;;7.47;2.88;;;;;;;14.50;36.95;102480.72;4979889;28;20124;-73
2023/04/19 11:04:08;;;;;;;5.10;2.45;;;;;;;14.55;35.58;102480.69;4994120;28;20034;-73
2023/04/19 11:06:34;;;;;;;4.20;2.17;;;;;;;14.78;36.54;102472.47;5011266;28;20044;-72
2023/04/19 11:09:01;;;;;;;5.00;2.10;;;;;;;14.98;35.28;102454.69;5012154;28;20508;-72
2023/04/19 11:11:26;;;;;;;3.33;2.30;;;;;;;15.04;34.42;102478.22;5012386;28;20030;-74
2023/04/19 11:13:56;;;;;;;3.38;2.25;;;;;;;15.06;34.78;102483.44;4998412;28;20385;-72